• Join FlightAware (Why Join?)
  • Login
  • US Flag 
11:52PM EDT


 

Airport Tracker/Info


-or-


 

Live Flight TrackerFlight Track Log ✈ DAL2241 ✈ 24-Apr-2013 ✈ KSLC - KLAX

Flight Track Log - Related Links

Times and Time Zones

All times are in EDT time to prevent confusion due to time zone crossing. See the DAL2241 flight status page for this flight to view local times or setup timezone preferences in your user account.

Time Position Orientation Groundspeed Altitude Reporting Facility
EDT Latitude Longitude Course Direction KTS MPH feet Rate Location/Type
05:23PM 40.8178 -112.0039 194° South 193 222 5,400  Level Salt Lake Center
05:25PM 40.8278 -112.0964 278° West 241 277 7,700 2,220 Climbing Salt Lake Center
05:25PM 40.8203 -112.1703 262° West 281 323 9,700 2,400 Climbing Salt Lake Center
05:26PM 40.6848 -112.2833 180° South  Level FlightAware Approximate
05:26PM 40.8128 -112.1989 251° West 281 323 10,200  Level Salt Lake Center
05:27PM 40.5763 -112.2962 186° South  Level FlightAware Approximate
05:27PM 40.7481 -112.2786 223° Southwest 333 383 12,500  Level Salt Lake Center
05:28PM 40.4683 -112.3145 190° South  Level FlightAware Approximate
05:28PM 40.6511 -112.2983 189° South 353 406 15,200  Level Salt Lake Center
05:29PM 40.3612 -112.3407 194° South  Level FlightAware Approximate
05:29PM 40.5483 -112.3147 187° South 371 427 17,700  Level Salt Lake Center
05:30PM 40.4425 -112.3378 189° South 385 443 20,000 2,220 Climbing Salt Lake Center
05:31PM 40.3114 -112.3750 192° South 405 466 22,400 2,100 Climbing Salt Lake Center
05:32PM 40.2108 -112.4486 209° Southwest 413 475 24,400 1,800 Climbing Salt Lake Center
05:33PM 40.1069 -112.5225 209° Southwest 424 488 26,200 1,620 Climbing Salt Lake Center
05:34PM 40.0008 -112.5961 208° Southwest 432 497 27,800 1,500 Climbing Salt Lake Center
05:35PM 39.8950 -112.6711 209° Southwest 433 498 29,300 1,380 Climbing Salt Lake Center
05:36PM 39.7842 -112.7444 207° Southwest 441 507 30,700 1,320 Climbing Salt Lake Center
05:37PM 39.6647 -112.8244 207° Southwest 450 518 32,100 1,440 Climbing Salt Lake Center
05:38PM 39.5419 -112.8636 194° South 454 522 33,700 1,380 Climbing Salt Lake Center
05:39PM 39.3958 -112.9111 194° South 451 519 35,000 600 Climbing Salt Lake Center
05:40PM 39.2742 -112.9514 194° South 451 519 35,000  Level Salt Lake Center
05:41PM 39.1528 -112.9925 195° South 452 520 35,000  Level Salt Lake Center
05:42PM 39.0319 -113.0278 193° South 447 514 35,000 480 Level Salt Lake Center
05:43PM 38.9131 -113.0656 194° South 442 509 36,000 480 Climbing Salt Lake Center
05:44PM 38.7958 -113.1042 194° South 437 503 36,000  Level Salt Lake Center
05:45PM 38.6547 -113.1489 194° South 437 503 36,000  Level Salt Lake Center
05:46PM 38.5381 -113.1867 194° South 435 501 36,000  Level Salt Lake Center
05:47PM 38.4211 -113.2225 193° South 433 498 36,000  Level Salt Lake Center
05:48PM 38.3050 -113.2611 195° South 430 495 36,000  Level Salt Lake Center
05:49PM 38.1903 -113.2958 193° South 427 491 36,000  Level Salt Lake Center
05:50PM 38.0744 -113.3336 194° South 430 495 36,000  Level Salt Lake Center
05:51PM 37.9369 -113.3761 194° South 428 493 36,000  Level Salt Lake Center
05:52PM 37.8344 -113.4394 206° Southwest 417 480 36,000  Level Salt Lake Center
05:53PM 37.7394 -113.5144 212° Southwest 408 470 36,000  Level Salt Lake Center
05:54PM 37.6447 -113.5903 212° Southwest 407 468 36,000  Level Salt Lake Center
05:55PM 37.5497 -113.6661 212° Southwest 407 468 36,000  Level Salt Lake Center
05:57PM 37.4528 -113.7422 212° Southwest 411 473 36,000  Level Salt Lake Center
05:58PM 37.3358 -113.8333 212° Southwest 414 476 36,000  Level Salt Lake Center
05:59PM 37.2400 -113.9094 212° Southwest 410 472 36,000  Level Salt Lake Center
06:00PM 37.1417 -113.9853 212° Southwest 414 476 36,000  Level Salt Lake Center
06:00PM 37.0794 -114.0358 213° Southwest 409 471 36,000  Level Los Angeles Center
06:01PM 36.9814 -114.1106 211° Southwest 411 473 36,000  Level Los Angeles Center
06:02PM 36.8639 -114.2017 212° Southwest 413 475 36,000  Level Los Angeles Center
06:03PM 36.7633 -114.2758 211° Southwest 417 480 36,000  Level Los Angeles Center
06:04PM 36.6664 -114.3517 212° Southwest 413 475 36,000  Level Los Angeles Center
06:06PM 36.5669 -114.4281 212° Southwest 416 479 36,000  Level Los Angeles Center
06:07PM 36.4681 -114.5028 211° Southwest 416 479 36,000  Level Los Angeles Center
06:08PM 36.3689 -114.5794 212° Southwest 418 481 36,000 -480 Level Los Angeles Center
06:09PM 36.2511 -114.6694 212° Southwest 414 476 35,100 -900 Descending Los Angeles Center
06:10PM 36.1508 -114.7453 211° Southwest 418 481 34,200 -540 Descending Los Angeles Center
06:11PM 36.0503 -114.8214 211° Southwest 420 483 34,000 -120 Descending Los Angeles Center
06:12PM 35.9594 -114.9117 219° Southwest 419 482 34,000  Level Los Angeles Center
06:13PM 35.8803 -115.0183 228° Southwest 420 483 34,000  Level Los Angeles Center
06:14PM 35.8006 -115.1264 228° Southwest 422 486 34,000  Level Los Angeles Center
06:15PM 35.7203 -115.2375 228° Southwest 429 494 34,000  Level Los Angeles Center
06:16PM 35.6233 -115.3686 228° Southwest 430 495 34,000  Level Los Angeles Center
06:17PM 35.5428 -115.4781 228° Southwest 430 495 34,000  Level Los Angeles Center
06:18PM 35.4594 -115.5878 227° Southwest 435 501 34,000  Level Los Angeles Center
06:19PM 35.3844 -115.6894 228° Southwest 435 501 34,000 -60 Level Los Angeles Center
06:20PM 35.3014 -115.8006 228° Southwest 442 509 33,900 -660 Descending Los Angeles Center
06:21PM 35.2000 -115.9333 227° Southwest 443 510 32,700 -1,020 Descending Los Angeles Center
06:22PM 35.1156 -116.0461 228° Southwest 450 518 31,800 -960 Descending Los Angeles Center
06:23PM 35.0308 -116.1569 227° Southwest 447 514 30,800 -900 Descending Los Angeles Center
06:24PM 34.9447 -116.2700 227° Southwest 451 519 30,000 -420 Descending Los Angeles Center
06:25PM 34.8611 -116.3786 227° Southwest 444 511 30,000  Level Los Angeles Center
06:26PM 34.7733 -116.4847 225° Southwest 442 509 30,000 -360 Level Los Angeles Center
06:27PM 34.6567 -116.5944 218° Southwest 442 509 29,300 -1,020 Descending Los Angeles Center
06:28PM 34.5614 -116.6839 218° Southwest 434 499 27,900 -1,560 Descending Los Angeles Center
06:29PM 34.4692 -116.7703 218° Southwest 419 482 26,100 -1,980 Descending Los Angeles Center
06:30PM 34.3808 -116.8517 217° Southwest 399 459 23,900 -2,040 Descending Los Angeles Center
06:31PM 34.2997 -116.9292 218° Southwest 374 430 22,000 -1,920 Descending Los Angeles Center
06:32PM 34.2206 -117.0019 217° Southwest 359 413 20,000 -1,920 Descending Los Angeles Center
06:33PM 34.1433 -117.0733 217° Southwest 349 402 18,100 -1,560 Descending Los Angeles Center
06:34PM 34.1167 -117.1167 233° Southwest 354 407 18,000 -1,560 Descending Southern California TRACON
06:35PM 34.0500 -117.2333 235° Southwest 359 413 16,000 -1,860 Descending Southern California TRACON
06:36PM 34.0333 -117.3500 260° West 363 418 14,100 -1,740 Descending Southern California TRACON
06:37PM 34.0333 -117.4500 270° West 352 405 12,700 -1,800 Descending Southern California TRACON
06:38PM 34.0333 -117.5667 270° West 344 396 10,700 -1,320 Descending Southern California TRACON
06:39PM 34.0167 -117.6833 260° West 290 334 10,000 -960 Descending Southern California TRACON
06:40PM 34.0167 -117.7833 270° West 294 338 8,800 -1,320 Descending Southern California TRACON
06:41PM 34.0000 -117.8833 259° West 289 333 7,400 -1,260 Descending Southern California TRACON
06:42PM 34.0000 -117.9833 270° West 254 292 6,300 -720 Descending Southern California TRACON
06:43PM 33.9833 -118.0500 253° West 213 245 6,000 -720 Descending Southern California TRACON
06:44PM 33.9833 -118.1000 270° West 209 241 5,000 -1,200 Descending Southern California TRACON
06:45PM 33.9753 -118.1836 263° West 209 241 3,700 -1,080 Descending Los Angeles Center
06:46PM 33.9686 -118.2458 263° West 195 224 2,700 -1,020 Descending Los Angeles Center